sensor_id;sensor_type;location;lat;lon;timestamp;P1;durP1;ratioP1;P2;durP2;ratioP2
9372;SDS011;10838;52.350;9.790;2023-04-29T00:02:15;19.27;;;15.97;;
9372;SDS011;10838;52.350;9.790;2023-04-29T00:04:42;19.63;;;16.00;;
9372;SDS011;10838;52.350;9.790;2023-04-29T00:07:08;20.80;;;17.13;;
9372;SDS011;10838;52.350;9.790;2023-04-29T00:09:39;20.77;;;16.87;;
9372;SDS011;10838;52.350;9.790;2023-04-29T00:12:07;24.13;;;19.60;;
9372;SDS011;10838;52.350;9.790;2023-04-29T00:14:34;24.10;;;18.87;;
9372;SDS011;10838;52.350;9.790;2023-04-29T00:17:01;23.37;;;20.07;;
9372;SDS011;10838;52.350;9.790;2023-04-29T00:19:28;28.20;;;21.90;;
9372;SDS011;10838;52.350;9.790;2023-04-29T00:21:55;30.73;;;23.07;;
9372;SDS011;10838;52.350;9.790;2023-04-29T00:24:21;32.77;;;23.47;;
9372;SDS011;10838;52.350;9.790;2023-04-29T00:26:48;32.50;;;22.90;;
9372;SDS011;10838;52.350;9.790;2023-04-29T00:29:16;33.93;;;24.63;;
9372;SDS011;10838;52.350;9.790;2023-04-29T00:31:43;36.17;;;25.00;;
9372;SDS011;10838;52.350;9.790;2023-04-29T00:34:10;40.70;;;27.13;;
9372;SDS011;10838;52.350;9.790;2023-04-29T00:36:36;40.33;;;25.60;;
9372;SDS011;10838;52.350;9.790;2023-04-29T00:39:03;43.07;;;27.47;;
9372;SDS011;10838;52.350;9.790;2023-04-29T00:41:29;39.43;;;26.33;;
9372;SDS011;10838;52.350;9.790;2023-04-29T00:43:57;40.73;;;27.17;;
9372;SDS011;10838;52.350;9.790;2023-04-29T00:46:25;42.63;;;25.97;;
9372;SDS011;10838;52.350;9.790;2023-04-29T00:48:52;42.20;;;26.17;;
9372;SDS011;10838;52.350;9.790;2023-04-29T00:51:18;39.43;;;26.33;;
9372;SDS011;10838;52.350;9.790;2023-04-29T00:53:45;39.17;;;25.40;;
9372;SDS011;10838;52.350;9.790;2023-04-29T00:56:13;37.03;;;24.83;;
9372;SDS011;10838;52.350;9.790;2023-04-29T00:58:40;38.57;;;25.73;;
9372;SDS011;10838;52.350;9.790;2023-04-29T01:01:13;38.77;;;25.03;;
9372;SDS011;10838;52.350;9.790;2023-04-29T01:03:41;37.20;;;24.33;;
9372;SDS011;10838;52.350;9.790;2023-04-29T01:06:11;37.67;;;24.80;;
9372;SDS011;10838;52.350;9.790;2023-04-29T01:08:51;37.63;;;24.83;;
9372;SDS011;10838;52.350;9.790;2023-04-29T01:11:34;40.40;;;25.13;;
9372;SDS011;10838;52.350;9.790;2023-04-29T01:14:04;36.30;;;24.20;;
9372;SDS011;10838;52.350;9.790;2023-04-29T01:16:33;40.40;;;26.23;;
9372;SDS011;10838;52.350;9.790;2023-04-29T01:19:10;38.67;;;26.20;;
9372;SDS011;10838;52.350;9.790;2023-04-29T01:21:45;37.77;;;25.43;;
9372;SDS011;10838;52.350;9.790;2023-04-29T01:24:14;40.13;;;25.40;;
9372;SDS011;10838;52.350;9.790;2023-04-29T01:26:41;40.50;;;25.47;;
9372;SDS011;10838;52.350;9.790;2023-04-29T01:29:19;36.23;;;24.63;;
9372;SDS011;10838;52.350;9.790;2023-04-29T01:31:54;37.07;;;24.57;;
9372;SDS011;10838;52.350;9.790;2023-04-29T01:34:29;38.30;;;24.10;;
9372;SDS011;10838;52.350;9.790;2023-04-29T01:37:03;39.90;;;24.20;;
9372;SDS011;10838;52.350;9.790;2023-04-29T01:39:40;35.03;;;23.13;;
9372;SDS011;10838;52.350;9.790;2023-04-29T01:42:14;37.67;;;23.73;;
9372;SDS011;10838;52.350;9.790;2023-04-29T01:44:43;37.17;;;23.97;;
9372;SDS011;10838;52.350;9.790;2023-04-29T01:47:12;40.47;;;25.43;;
9372;SDS011;10838;52.350;9.790;2023-04-29T01:49:40;41.53;;;24.33;;
9372;SDS011;10838;52.350;9.790;2023-04-29T01:52:06;39.37;;;24.97;;
9372;SDS011;10838;52.350;9.790;2023-04-29T01:54:33;36.10;;;25.50;;
9372;SDS011;10838;52.350;9.790;2023-04-29T01:57:02;41.77;;;25.77;;
9372;SDS011;10838;52.350;9.790;2023-04-29T01:59:28;35.33;;;24.40;;
9372;SDS011;10838;52.350;9.790;2023-04-29T02:01:55;40.53;;;25.23;;
9372;SDS011;10838;52.350;9.790;2023-04-29T02:04:22;38.03;;;24.07;;
9372;SDS011;10838;52.350;9.790;2023-04-29T02:06:49;39.30;;;25.33;;
9372;SDS011;10838;52.350;9.790;2023-04-29T02:09:17;34.07;;;23.23;;
9372;SDS011;10838;52.350;9.790;2023-04-29T02:11:43;37.03;;;24.60;;
9372;SDS011;10838;52.350;9.790;2023-04-29T02:14:11;39.73;;;24.67;;
9372;SDS011;10838;52.350;9.790;2023-04-29T02:16:38;37.00;;;23.97;;
9372;SDS011;10838;52.350;9.790;2023-04-29T02:19:05;34.27;;;23.43;;
9372;SDS011;10838;52.350;9.790;2023-04-29T02:21:31;33.97;;;22.23;;
9372;SDS011;10838;52.350;9.790;2023-04-29T02:23:59;33.10;;;22.33;;
9372;SDS011;10838;52.350;9.790;2023-04-29T02:26:25;33.33;;;20.50;;
9372;SDS011;10838;52.350;9.790;2023-04-29T02:28:52;25.80;;;18.40;;
9372;SDS011;10838;52.350;9.790;2023-04-29T02:31:22;24.23;;;18.10;;
9372;SDS011;10838;52.350;9.790;2023-04-29T02:33:49;25.40;;;17.93;;
9372;SDS011;10838;52.350;9.790;2023-04-29T02:36:15;25.70;;;17.30;;
9372;SDS011;10838;52.350;9.790;2023-04-29T02:38:42;27.03;;;18.20;;
9372;SDS011;10838;52.350;9.790;2023-04-29T02:41:09;32.53;;;21.97;;
9372;SDS011;10838;52.350;9.790;2023-04-29T02:43:36;40.23;;;24.10;;
9372;SDS011;10838;52.350;9.790;2023-04-29T02:46:02;38.77;;;24.50;;
9372;SDS011;10838;52.350;9.790;2023-04-29T02:48:30;38.10;;;24.83;;
9372;SDS011;10838;52.350;9.790;2023-04-29T02:50:57;38.03;;;25.30;;
9372;SDS011;10838;52.350;9.790;2023-04-29T02:53:23;39.37;;;25.43;;
9372;SDS011;10838;52.350;9.790;2023-04-29T02:55:50;38.37;;;25.10;;
9372;SDS011;10838;52.350;9.790;2023-04-29T02:58:16;36.50;;;23.00;;
9372;SDS011;10838;52.350;9.790;2023-04-29T03:00:43;36.63;;;23.63;;
9372;SDS011;10838;52.350;9.790;2023-04-29T03:03:09;35.00;;;24.20;;
9372;SDS011;10838;52.350;9.790;2023-04-29T03:05:37;39.87;;;24.60;;
9372;SDS011;10838;52.350;9.790;2023-04-29T03:08:04;35.20;;;23.67;;
9372;SDS011;10838;52.350;9.790;2023-04-29T03:10:31;34.57;;;23.10;;
9372;SDS011;10838;52.350;9.790;2023-04-29T03:12:58;31.60;;;21.53;;
9372;SDS011;10838;52.350;9.790;2023-04-29T03:15:24;30.27;;;21.40;;
9372;SDS011;10838;52.350;9.790;2023-04-29T03:17:51;27.93;;;20.00;;
9372;SDS011;10838;52.350;9.790;2023-04-29T03:20:17;23.47;;;19.43;;
9372;SDS011;10838;52.350;9.790;2023-04-29T03:22:45;26.60;;;20.30;;
9372;SDS011;10838;52.350;9.790;2023-04-29T03:25:12;24.93;;;20.20;;
9372;SDS011;10838;52.350;9.790;2023-04-29T03:27:38;21.40;;;18.80;;
9372;SDS011;10838;52.350;9.790;2023-04-29T03:30:06;22.97;;;18.90;;
9372;SDS011;10838;52.350;9.790;2023-04-29T03:32:33;21.27;;;19.03;;
9372;SDS011;10838;52.350;9.790;2023-04-29T03:35:00;23.17;;;19.20;;
9372;SDS011;10838;52.350;9.790;2023-04-29T03:37:27;21.80;;;19.30;;
9372;SDS011;10838;52.350;9.790;2023-04-29T03:39:55;21.83;;;19.20;;
9372;SDS011;10838;52.350;9.790;2023-04-29T03:42:21;23.93;;;20.00;;
9372;SDS011;10838;52.350;9.790;2023-04-29T03:44:48;24.53;;;20.70;;
9372;SDS011;10838;52.350;9.790;2023-04-29T03:47:14;24.13;;;21.30;;
9372;SDS011;10838;52.350;9.790;2023-04-29T03:49:41;23.87;;;21.23;;
9372;SDS011;10838;52.350;9.790;2023-04-29T03:52:08;26.30;;;21.87;;
9372;SDS011;10838;52.350;9.790;2023-04-29T03:54:36;25.30;;;22.60;;
9372;SDS011;10838;52.350;9.790;2023-04-29T03:57:04;27.60;;;22.57;;
9372;SDS011;10838;52.350;9.790;2023-04-29T03:59:30;28.37;;;22.80;;
9372;SDS011;10838;52.350;9.790;2023-04-29T04:01:57;31.13;;;22.87;;
9372;SDS011;10838;52.350;9.790;2023-04-29T04:04:24;27.27;;;22.37;;
9372;SDS011;10838;52.350;9.790;2023-04-29T04:06:50;30.00;;;23.73;;
9372;SDS011;10838;52.350;9.790;2023-04-29T04:09:17;28.83;;;24.63;;
9372;SDS011;10838;52.350;9.790;2023-04-29T04:11:44;28.20;;;23.07;;
9372;SDS011;10838;52.350;9.790;2023-04-29T04:14:12;31.80;;;25.50;;
9372;SDS011;10838;52.350;9.790;2023-04-29T04:16:38;31.23;;;25.30;;
9372;SDS011;10838;52.350;9.790;2023-04-29T04:19:05;31.97;;;26.13;;
9372;SDS011;10838;52.350;9.790;2023-04-29T04:21:31;34.30;;;26.23;;
9372;SDS011;10838;52.350;9.790;2023-04-29T04:23:58;33.17;;;26.67;;
9372;SDS011;10838;52.350;9.790;2023-04-29T04:26:25;37.83;;;28.40;;
9372;SDS011;10838;52.350;9.790;2023-04-29T04:28:51;39.00;;;28.40;;
9372;SDS011;10838;52.350;9.790;2023-04-29T04:31:19;45.77;;;31.60;;
9372;SDS011;10838;52.350;9.790;2023-04-29T04:33:46;42.17;;;30.80;;
9372;SDS011;10838;52.350;9.790;2023-04-29T04:36:12;48.17;;;32.20;;
9372;SDS011;10838;52.350;9.790;2023-04-29T04:38:39;47.60;;;32.77;;
9372;SDS011;10838;52.350;9.790;2023-04-29T04:41:05;45.70;;;32.97;;
9372;SDS011;10838;52.350;9.790;2023-04-29T04:43:32;51.77;;;35.40;;
9372;SDS011;10838;52.350;9.790;2023-04-29T04:45:59;51.03;;;34.43;;
9372;SDS011;10838;52.350;9.790;2023-04-29T04:48:27;52.07;;;36.63;;
9372;SDS011;10838;52.350;9.790;2023-04-29T04:50:54;54.20;;;36.73;;
9372;SDS011;10838;52.350;9.790;2023-04-29T04:53:21;57.00;;;37.30;;
9372;SDS011;10838;52.350;9.790;2023-04-29T04:55:47;60.03;;;38.90;;
9372;SDS011;10838;52.350;9.790;2023-04-29T04:58:14;52.93;;;37.30;;
9372;SDS011;10838;52.350;9.790;2023-04-29T05:00:42;55.60;;;38.57;;
9372;SDS011;10838;52.350;9.790;2023-04-29T05:03:10;59.00;;;39.47;;
9372;SDS011;10838;52.350;9.790;2023-04-29T05:05:37;61.77;;;39.27;;
9372;SDS011;10838;52.350;9.790;2023-04-29T05:08:04;61.83;;;41.97;;
9372;SDS011;10838;52.350;9.790;2023-04-29T05:10:31;57.40;;;39.87;;
9372;SDS011;10838;52.350;9.790;2023-04-29T05:13:01;56.93;;;38.57;;
9372;SDS011;10838;52.350;9.790;2023-04-29T05:15:27;54.83;;;38.03;;
9372;SDS011;10838;52.350;9.790;2023-04-29T05:17:54;55.33;;;37.90;;
9372;SDS011;10838;52.350;9.790;2023-04-29T05:20:20;51.73;;;36.03;;
9372;SDS011;10838;52.350;9.790;2023-04-29T05:22:48;51.93;;;34.60;;
9372;SDS011;10838;52.350;9.790;2023-04-29T05:25:15;50.30;;;34.63;;
9372;SDS011;10838;52.350;9.790;2023-04-29T05:27:42;48.57;;;34.77;;
9372;SDS011;10838;52.350;9.790;2023-04-29T05:30:09;42.83;;;33.43;;
9372;SDS011;10838;52.350;9.790;2023-04-29T05:32:36;42.33;;;31.47;;
9372;SDS011;10838;52.350;9.790;2023-04-29T05:35:02;41.37;;;31.70;;
9372;SDS011;10838;52.350;9.790;2023-04-29T05:37:30;37.70;;;28.70;;
9372;SDS011;10838;52.350;9.790;2023-04-29T05:39:57;37.87;;;27.23;;
9372;SDS011;10838;52.350;9.790;2023-04-29T05:42:24;34.00;;;27.27;;
9372;SDS011;10838;52.350;9.790;2023-04-29T05:44:51;33.37;;;26.40;;
9372;SDS011;10838;52.350;9.790;2023-04-29T05:47:17;36.70;;;27.50;;
9372;SDS011;10838;52.350;9.790;2023-04-29T05:49:44;33.77;;;26.10;;
9372;SDS011;10838;52.350;9.790;2023-04-29T05:52:10;37.57;;;27.90;;
9372;SDS011;10838;52.350;9.790;2023-04-29T05:54:37;38.37;;;28.30;;
9372;SDS011;10838;52.350;9.790;2023-04-29T05:57:05;36.33;;;27.57;;
9372;SDS011;10838;52.350;9.790;2023-04-29T05:59:32;42.27;;;29.97;;
9372;SDS011;10838;52.350;9.790;2023-04-29T06:01:59;37.33;;;28.30;;
9372;SDS011;10838;52.350;9.790;2023-04-29T06:04:26;41.50;;;28.73;;
9372;SDS011;10838;52.350;9.790;2023-04-29T06:06:53;37.60;;;27.63;;
9372;SDS011;10838;52.350;9.790;2023-04-29T06:09:21;43.37;;;28.50;;
9372;SDS011;10838;52.350;9.790;2023-04-29T06:11:49;38.20;;;27.90;;
9372;SDS011;10838;52.350;9.790;2023-04-29T06:14:17;39.80;;;28.57;;
9372;SDS011;10838;52.350;9.790;2023-04-29T06:16:44;39.03;;;27.97;;
9372;SDS011;10838;52.350;9.790;2023-04-29T06:19:11;39.67;;;27.70;;
9372;SDS011;10838;52.350;9.790;2023-04-29T06:21:38;34.97;;;25.73;;
9372;SDS011;10838;52.350;9.790;2023-04-29T06:24:05;32.87;;;25.47;;
9372;SDS011;10838;52.350;9.790;2023-04-29T06:26:31;35.00;;;25.73;;
9372;SDS011;10838;52.350;9.790;2023-04-29T06:28:58;37.57;;;25.67;;
9372;SDS011;10838;52.350;9.790;2023-04-29T06:31:26;33.27;;;24.93;;
9372;SDS011;10838;52.350;9.790;2023-04-29T06:33:52;33.30;;;24.50;;
9372;SDS011;10838;52.350;9.790;2023-04-29T06:36:19;38.10;;;25.73;;
9372;SDS011;10838;52.350;9.790;2023-04-29T06:38:46;36.50;;;25.80;;
9372;SDS011;10838;52.350;9.790;2023-04-29T06:41:12;40.63;;;23.90;;
9372;SDS011;10838;52.350;9.790;2023-04-29T06:43:39;30.27;;;23.43;;
9372;SDS011;10838;52.350;9.790;2023-04-29T06:46:07;36.07;;;24.87;;
9372;SDS011;10838;52.350;9.790;2023-04-29T06:48:35;31.23;;;23.70;;
9372;SDS011;10838;52.350;9.790;2023-04-29T06:51:01;26.97;;;22.00;;
9372;SDS011;10838;52.350;9.790;2023-04-29T06:53:28;29.30;;;23.40;;
9372;SDS011;10838;52.350;9.790;2023-04-29T06:55:55;28.97;;;22.00;;
9372;SDS011;10838;52.350;9.790;2023-04-29T06:58:21;26.93;;;21.50;;
9372;SDS011;10838;52.350;9.790;2023-04-29T07:00:49;25.50;;;21.97;;
9372;SDS011;10838;52.350;9.790;2023-04-29T07:03:16;27.63;;;21.07;;
9372;SDS011;10838;52.350;9.790;2023-04-29T07:05:45;25.90;;;21.90;;
9372;SDS011;10838;52.350;9.790;2023-04-29T07:08:11;25.07;;;20.47;;
9372;SDS011;10838;52.350;9.790;2023-04-29T07:10:38;28.80;;;20.60;;
9372;SDS011;10838;52.350;9.790;2023-04-29T07:13:06;25.30;;;20.47;;
9372;SDS011;10838;52.350;9.790;2023-04-29T07:15:33;23.23;;;19.67;;
9372;SDS011;10838;52.350;9.790;2023-04-29T07:18:02;20.80;;;18.60;;
9372;SDS011;10838;52.350;9.790;2023-04-29T07:20:28;23.40;;;20.27;;
9372;SDS011;10838;52.350;9.790;2023-04-29T07:22:56;23.13;;;19.80;;
9372;SDS011;10838;52.350;9.790;2023-04-29T07:25:24;22.87;;;19.20;;
9372;SDS011;10838;52.350;9.790;2023-04-29T07:27:51;28.40;;;19.47;;
9372;SDS011;10838;52.350;9.790;2023-04-29T07:30:17;25.00;;;19.30;;
9372;SDS011;10838;52.350;9.790;2023-04-29T07:32:44;21.67;;;17.17;;
9372;SDS011;10838;52.350;9.790;2023-04-29T07:35:11;21.17;;;16.93;;
9372;SDS011;10838;52.350;9.790;2023-04-29T07:37:37;22.63;;;16.33;;
9372;SDS011;10838;52.350;9.790;2023-04-29T07:40:06;17.13;;;15.40;;
9372;SDS011;10838;52.350;9.790;2023-04-29T07:42:33;19.27;;;16.60;;
9372;SDS011;10838;52.350;9.790;2023-04-29T07:45:00;17.87;;;15.70;;
9372;SDS011;10838;52.350;9.790;2023-04-29T07:47:26;17.30;;;14.13;;
9372;SDS011;10838;52.350;9.790;2023-04-29T07:49:53;16.87;;;14.07;;
9372;SDS011;10838;52.350;9.790;2023-04-29T07:52:19;16.00;;;14.37;;
9372;SDS011;10838;52.350;9.790;2023-04-29T07:54:46;15.50;;;13.77;;
9372;SDS011;10838;52.350;9.790;2023-04-29T07:57:14;14.73;;;13.23;;
9372;SDS011;10838;52.350;9.790;2023-04-29T07:59:41;15.80;;;13.63;;
9372;SDS011;10838;52.350;9.790;2023-04-29T08:02:07;14.27;;;12.77;;
9372;SDS011;10838;52.350;9.790;2023-04-29T08:04:37;17.33;;;12.93;;
9372;SDS011;10838;52.350;9.790;2023-04-29T08:07:04;16.27;;;12.90;;
9372;SDS011;10838;52.350;9.790;2023-04-29T08:09:31;15.90;;;12.80;;
9372;SDS011;10838;52.350;9.790;2023-04-29T08:11:57;12.97;;;11.77;;
9372;SDS011;10838;52.350;9.790;2023-04-29T08:14:26;13.13;;;11.67;;
9372;SDS011;10838;52.350;9.790;2023-04-29T08:16:53;11.93;;;10.23;;
9372;SDS011;10838;52.350;9.790;2023-04-29T08:19:20;12.03;;;10.83;;
9372;SDS011;10838;52.350;9.790;2023-04-29T08:21:46;12.17;;;10.53;;
9372;SDS011;10838;52.350;9.790;2023-04-29T08:24:13;14.23;;;10.70;;
9372;SDS011;10838;52.350;9.790;2023-04-29T08:26:39;12.23;;;10.50;;
9372;SDS011;10838;52.350;9.790;2023-04-29T08:29:06;11.10;;;9.27;;
9372;SDS011;10838;52.350;9.790;2023-04-29T08:31:34;11.13;;;10.03;;
9372;SDS011;10838;52.350;9.790;2023-04-29T08:34:01;11.70;;;8.83;;
9372;SDS011;10838;52.350;9.790;2023-04-29T08:36:27;10.70;;;9.70;;
9372;SDS011;10838;52.350;9.790;2023-04-29T08:38:54;11.53;;;10.33;;
9372;SDS011;10838;52.350;9.790;2023-04-29T08:41:20;11.50;;;10.40;;
9372;SDS011;10838;52.350;9.790;2023-04-29T08:43:48;11.23;;;9.93;;
9372;SDS011;10838;52.350;9.790;2023-04-29T08:46:15;11.37;;;10.17;;
9372;SDS011;10838;52.350;9.790;2023-04-29T08:48:44;11.97;;;9.20;;
9372;SDS011;10838;52.350;9.790;2023-04-29T08:51:12;9.77;;;8.77;;
9372;SDS011;10838;52.350;9.790;2023-04-29T08:53:38;10.30;;;9.30;;
9372;SDS011;10838;52.350;9.790;2023-04-29T08:56:07;10.27;;;9.17;;
9372;SDS011;10838;52.350;9.790;2023-04-29T08:58:38;10.57;;;8.80;;
9372;SDS011;10838;52.350;9.790;2023-04-29T09:01:07;9.17;;;8.13;;
9372;SDS011;10838;52.350;9.790;2023-04-29T09:03:36;10.03;;;8.13;;
9372;SDS011;10838;52.350;9.790;2023-04-29T09:06:10;9.30;;;8.27;;
9372;SDS011;10838;52.350;9.790;2023-04-29T09:08:38;8.33;;;7.53;;
9372;SDS011;10838;52.350;9.790;2023-04-29T09:11:06;9.13;;;7.67;;
9372;SDS011;10838;52.350;9.790;2023-04-29T09:13:34;8.83;;;6.93;;
9372;SDS011;10838;52.350;9.790;2023-04-29T09:16:01;10.57;;;7.03;;
9372;SDS011;10838;52.350;9.790;2023-04-29T09:18:44;8.27;;;7.07;;
9372;SDS011;10838;52.350;9.790;2023-04-29T09:21:13;8.97;;;7.50;;
9372;SDS011;10838;52.350;9.790;2023-04-29T09:23:44;10.07;;;7.70;;
9372;SDS011;10838;52.350;9.790;2023-04-29T09:26:12;11.97;;;7.60;;
9372;SDS011;10838;52.350;9.790;2023-04-29T09:28:39;9.13;;;7.13;;
9372;SDS011;10838;52.350;9.790;2023-04-29T09:31:09;10.53;;;7.73;;
9372;SDS011;10838;52.350;9.790;2023-04-29T09:33:48;10.43;;;7.50;;
9372;SDS011;10838;52.350;9.790;2023-04-29T09:36:29;8.67;;;7.37;;
9372;SDS011;10838;52.350;9.790;2023-04-29T09:39:04;11.30;;;7.90;;
9372;SDS011;10838;52.350;9.790;2023-04-29T09:41:35;8.07;;;7.27;;
9372;SDS011;10838;52.350;9.790;2023-04-29T09:44:03;8.13;;;7.27;;
9372;SDS011;10838;52.350;9.790;2023-04-29T09:46:31;8.27;;;7.13;;
9372;SDS011;10838;52.350;9.790;2023-04-29T09:48:58;9.37;;;7.33;;
9372;SDS011;10838;52.350;9.790;2023-04-29T09:51:25;8.37;;;7.57;;
9372;SDS011;10838;52.350;9.790;2023-04-29T09:53:53;9.50;;;8.50;;
9372;SDS011;10838;52.350;9.790;2023-04-29T09:56:20;10.53;;;8.67;;
9372;SDS011;10838;52.350;9.790;2023-04-29T09:58:46;10.83;;;8.90;;
9372;SDS011;10838;52.350;9.790;2023-04-29T10:01:13;13.77;;;9.37;;
9372;SDS011;10838;52.350;9.790;2023-04-29T10:03:43;9.90;;;8.90;;
9372;SDS011;10838;52.350;9.790;2023-04-29T10:06:10;10.00;;;9.03;;
9372;SDS011;10838;52.350;9.790;2023-04-29T10:08:38;10.03;;;9.13;;
9372;SDS011;10838;52.350;9.790;2023-04-29T10:11:07;9.47;;;8.67;;
9372;SDS011;10838;52.350;9.790;2023-04-29T10:13:36;10.50;;;8.07;;
9372;SDS011;10838;52.350;9.790;2023-04-29T10:16:10;10.57;;;8.50;;
9372;SDS011;10838;52.350;9.790;2023-04-29T10:18:44;9.30;;;8.33;;
9372;SDS011;10838;52.350;9.790;2023-04-29T10:21:14;10.83;;;8.30;;
9372;SDS011;10838;52.350;9.790;2023-04-29T10:23:43;12.30;;;8.77;;
9372;SDS011;10838;52.350;9.790;2023-04-29T10:26:12;10.37;;;8.63;;
9372;SDS011;10838;52.350;9.790;2023-04-29T10:28:39;10.10;;;9.10;;
9372;SDS011;10838;52.350;9.790;2023-04-29T10:31:10;12.83;;;9.70;;
9372;SDS011;10838;52.350;9.790;2023-04-29T10:33:37;10.77;;;9.03;;
9372;SDS011;10838;52.350;9.790;2023-04-29T10:36:08;11.13;;;10.00;;
9372;SDS011;10838;52.350;9.790;2023-04-29T10:38:35;10.77;;;9.37;;
9372;SDS011;10838;52.350;9.790;2023-04-29T10:41:07;9.20;;;8.17;;
9372;SDS011;10838;52.350;9.790;2023-04-29T10:43:40;13.00;;;8.47;;
9372;SDS011;10838;52.350;9.790;2023-04-29T10:46:17;11.23;;;9.00;;
9372;SDS011;10838;52.350;9.790;2023-04-29T10:48:44;8.70;;;7.77;;
9372;SDS011;10838;52.350;9.790;2023-04-29T10:51:11;9.77;;;8.27;;
9372;SDS011;10838;52.350;9.790;2023-04-29T10:56:23;10.53;;;8.30;;
9372;SDS011;10838;52.350;9.790;2023-04-29T10:59:02;8.23;;;7.53;;
9372;SDS011;10838;52.350;9.790;2023-04-29T11:01:39;9.13;;;7.33;;
9372;SDS011;10838;52.350;9.790;2023-04-29T11:04:13;9.73;;;7.60;;
9372;SDS011;10838;52.350;9.790;2023-04-29T11:06:41;8.67;;;7.63;;
9372;SDS011;10838;52.350;9.790;2023-04-29T11:09:12;10.17;;;7.80;;
9372;SDS011;10838;52.350;9.790;2023-04-29T11:11:40;12.70;;;7.73;;
9372;SDS011;10838;52.350;9.790;2023-04-29T11:14:09;9.73;;;6.97;;
9372;SDS011;10838;52.350;9.790;2023-04-29T11:16:37;7.33;;;6.63;;
9372;SDS011;10838;52.350;9.790;2023-04-29T11:19:13;6.40;;;5.90;;
9372;SDS011;10838;52.350;9.790;2023-04-29T11:21:40;6.43;;;5.83;;
9372;SDS011;10838;52.350;9.790;2023-04-29T11:24:07;6.90;;;6.30;;
9372;SDS011;10838;52.350;9.790;2023-04-29T11:26:34;7.87;;;6.90;;
9372;SDS011;10838;52.350;9.790;2023-04-29T11:29:01;6.40;;;5.90;;
9372;SDS011;10838;52.350;9.790;2023-04-29T11:31:30;7.20;;;6.50;;
9372;SDS011;10838;52.350;9.790;2023-04-29T11:33:58;8.33;;;6.80;;
9372;SDS011;10838;52.350;9.790;2023-04-29T11:36:25;10.70;;;6.47;;
9372;SDS011;10838;52.350;9.790;2023-04-29T11:38:52;8.23;;;6.53;;
9372;SDS011;10838;52.350;9.790;2023-04-29T11:41:19;9.80;;;6.50;;
9372;SDS011;10838;52.350;9.790;2023-04-29T11:43:46;7.37;;;6.67;;
9372;SDS011;10838;52.350;9.790;2023-04-29T11:46:19;7.23;;;6.30;;
9372;SDS011;10838;52.350;9.790;2023-04-29T11:48:47;11.90;;;6.30;;
9372;SDS011;10838;52.350;9.790;2023-04-29T11:51:15;9.10;;;6.20;;
9372;SDS011;10838;52.350;9.790;2023-04-29T11:53:43;8.93;;;6.47;;
9372;SDS011;10838;52.350;9.790;2023-04-29T11:56:10;7.10;;;6.30;;
9372;SDS011;10838;52.350;9.790;2023-04-29T11:58:37;7.87;;;6.40;;
9372;SDS011;10838;52.350;9.790;2023-04-29T12:01:04;14.90;;;7.00;;
9372;SDS011;10838;52.350;9.790;2023-04-29T12:03:31;7.40;;;6.23;;
9372;SDS011;10838;52.350;9.790;2023-04-29T12:06:00;10.87;;;6.53;;
9372;SDS011;10838;52.350;9.790;2023-04-29T12:08:28;7.93;;;6.43;;
9372;SDS011;10838;52.350;9.790;2023-04-29T12:10:57;7.57;;;6.30;;
9372;SDS011;10838;52.350;9.790;2023-04-29T12:13:25;6.67;;;5.97;;
9372;SDS011;10838;52.350;9.790;2023-04-29T12:15:54;8.30;;;5.90;;
9372;SDS011;10838;52.350;9.790;2023-04-29T12:18:21;7.70;;;5.60;;
9372;SDS011;10838;52.350;9.790;2023-04-29T12:20:49;7.53;;;5.97;;
9372;SDS011;10838;52.350;9.790;2023-04-29T12:23:18;7.63;;;5.67;;
9372;SDS011;10838;52.350;9.790;2023-04-29T12:25:48;8.67;;;5.87;;
9372;SDS011;10838;52.350;9.790;2023-04-29T12:28:15;6.07;;;5.47;;
9372;SDS011;10838;52.350;9.790;2023-04-29T12:30:42;7.40;;;5.77;;
9372;SDS011;10838;52.350;9.790;2023-04-29T12:33:09;7.13;;;5.80;;
9372;SDS011;10838;52.350;9.790;2023-04-29T12:35:36;5.73;;;5.23;;
9372;SDS011;10838;52.350;9.790;2023-04-29T12:38:02;5.63;;;5.10;;
9372;SDS011;10838;52.350;9.790;2023-04-29T12:40:30;7.97;;;6.80;;
9372;SDS011;10838;52.350;9.790;2023-04-29T12:42:58;7.17;;;5.47;;
9372;SDS011;10838;52.350;9.790;2023-04-29T12:45:32;7.30;;;5.07;;
9372;SDS011;10838;52.350;9.790;2023-04-29T12:48:00;5.37;;;4.97;;
9372;SDS011;10838;52.350;9.790;2023-04-29T12:50:29;4.80;;;4.40;;
9372;SDS011;10838;52.350;9.790;2023-04-29T12:52:57;4.60;;;4.20;;
9372;SDS011;10838;52.350;9.790;2023-04-29T12:55:24;4.93;;;4.63;;
9372;SDS011;10838;52.350;9.790;2023-04-29T12:57:52;5.20;;;4.70;;
9372;SDS011;10838;52.350;9.790;2023-04-29T13:00:19;4.53;;;4.17;;
9372;SDS011;10838;52.350;9.790;2023-04-29T13:02:46;6.30;;;5.00;;
9372;SDS011;10838;52.350;9.790;2023-04-29T13:05:12;5.00;;;4.60;;
9372;SDS011;10838;52.350;9.790;2023-04-29T13:07:39;6.20;;;4.57;;
9372;SDS011;10838;52.350;9.790;2023-04-29T13:10:07;6.10;;;4.50;;
9372;SDS011;10838;52.350;9.790;2023-04-29T13:12:36;6.30;;;4.40;;
9372;SDS011;10838;52.350;9.790;2023-04-29T13:15:04;7.17;;;4.20;;
9372;SDS011;10838;52.350;9.790;2023-04-29T13:17:33;6.03;;;4.80;;
9372;SDS011;10838;52.350;9.790;2023-04-29T13:20:00;5.20;;;4.70;;
9372;SDS011;10838;52.350;9.790;2023-04-29T13:22:27;5.00;;;4.60;;
9372;SDS011;10838;52.350;9.790;2023-04-29T13:24:53;4.97;;;4.50;;
9372;SDS011;10838;52.350;9.790;2023-04-29T13:27:20;4.93;;;4.33;;
9372;SDS011;10838;52.350;9.790;2023-04-29T13:29:47;4.90;;;4.50;;
9372;SDS011;10838;52.350;9.790;2023-04-29T13:32:15;4.10;;;3.80;;
9372;SDS011;10838;52.350;9.790;2023-04-29T13:34:42;5.00;;;4.50;;
9372;SDS011;10838;52.350;9.790;2023-04-29T13:37:09;4.47;;;4.07;;
9372;SDS011;10838;52.350;9.790;2023-04-29T13:39:35;4.20;;;3.90;;
9372;SDS011;10838;52.350;9.790;2023-04-29T13:42:02;4.57;;;4.17;;
9372;SDS011;10838;52.350;9.790;2023-04-29T13:44:29;6.10;;;4.43;;
9372;SDS011;10838;52.350;9.790;2023-04-29T13:46:55;8.27;;;4.73;;
9372;SDS011;10838;52.350;9.790;2023-04-29T13:49:23;6.07;;;4.60;;
9372;SDS011;10838;52.350;9.790;2023-04-29T13:51:51;5.33;;;4.60;;
9372;SDS011;10838;52.350;9.790;2023-04-29T13:54:17;4.50;;;3.60;;
9372;SDS011;10838;52.350;9.790;2023-04-29T13:56:45;4.17;;;3.80;;
9372;SDS011;10838;52.350;9.790;2023-04-29T13:59:11;4.17;;;3.87;;
9372;SDS011;10838;52.350;9.790;2023-04-29T14:01:38;5.73;;;3.90;;
9372;SDS011;10838;52.350;9.790;2023-04-29T14:04:05;4.77;;;4.30;;
9372;SDS011;10838;52.350;9.790;2023-04-29T14:06:33;4.97;;;4.13;;
9372;SDS011;10838;52.350;9.790;2023-04-29T14:09:00;5.30;;;4.53;;
9372;SDS011;10838;52.350;9.790;2023-04-29T14:11:27;6.30;;;4.30;;
9372;SDS011;10838;52.350;9.790;2023-04-29T14:13:54;5.00;;;4.50;;
9372;SDS011;10838;52.350;9.790;2023-04-29T14:16:21;5.80;;;5.17;;
9372;SDS011;10838;52.350;9.790;2023-04-29T14:18:47;6.10;;;5.27;;
9372;SDS011;10838;52.350;9.790;2023-04-29T14:21:14;7.47;;;5.77;;
9372;SDS011;10838;52.350;9.790;2023-04-29T14:23:42;8.23;;;5.67;;
9372;SDS011;10838;52.350;9.790;2023-04-29T14:26:08;7.30;;;5.50;;
9372;SDS011;10838;52.350;9.790;2023-04-29T14:28:35;5.73;;;5.13;;
9372;SDS011;10838;52.350;9.790;2023-04-29T14:31:02;6.30;;;4.77;;
9372;SDS011;10838;52.350;9.790;2023-04-29T14:33:28;5.73;;;5.20;;
9372;SDS011;10838;52.350;9.790;2023-04-29T14:35:55;4.97;;;4.57;;
9372;SDS011;10838;52.350;9.790;2023-04-29T14:38:22;4.93;;;4.40;;
9372;SDS011;10838;52.350;9.790;2023-04-29T14:40:50;8.67;;;4.73;;
9372;SDS011;10838;52.350;9.790;2023-04-29T14:43:16;5.03;;;4.57;;
9372;SDS011;10838;52.350;9.790;2023-04-29T14:45:43;5.20;;;4.70;;
9372;SDS011;10838;52.350;9.790;2023-04-29T14:48:10;7.87;;;4.60;;
9372;SDS011;10838;52.350;9.790;2023-04-29T14:50:36;5.43;;;4.93;;